»·PEaware :: N8735K KVNY-KSAN

N8735K :: KVNY-KSAN

FLIGHT INFORMATION

Flight Status: Arrived
Operator: Privately registered:
United States
More flights under this callsign
Pilot: Jeff K. (12978)
Aircraft: BEECH AIRCRAFT BARON
(BE58)
More flights by this aircraft type
Origin: KVNY Van Nuys
United States
Destination: KSAN San Diego Intl-Lindbergh
United States
More flights between these airports :: More routes between these airports
Route: +V186 HAILE V66 MZB
File this flight plan on PilotEdge
Remarks:
Altitude:
(Current/Filed)
9,000ft
Speed:
(Current/Filed)
160kts
Departed: 26-Oct-17 07:34 PM
Arrived: 26-Oct-17 08:31 PM
Distance/Time
Traveled:
110nm/0:57
Distance/Time
To Go:
Arrived

Flight Plot

Page will automatically refresh every two minutes.

Flight plan parsing failed; only flown route is shown


Map Options




Map Legend


Flown Route
Filed Route
Departure Airport
Arrival Airport
Navaid (VOR, NDB)
Fix

Horizontal Profiles

Position Reports

Time Latitude Longitude Heading Altitude Ground
Speed
26-Oct-17 19:02 34.206519 -118.491843 121 768ft 0kts
26-Oct-17 19:03 34.206519 -118.491843 121 768ft 0kts
26-Oct-17 19:04 34.206519 -118.491843 121 768ft 0kts
26-Oct-17 19:05 34.206519 -118.491843 121 768ft 0kts
26-Oct-17 19:06 34.206519 -118.491843 121 768ft 0kts
26-Oct-17 19:07 34.206519 -118.491843 121 768ft 0kts
26-Oct-17 19:08 34.206519 -118.491843 121 768ft 0kts
26-Oct-17 19:09 34.206519 -118.491843 121 768ft 0kts
26-Oct-17 19:10 34.206519 -118.491842 121 768ft 0kts
26-Oct-17 19:11 34.206519 -118.491842 121 768ft 0kts
26-Oct-17 19:12 34.206519 -118.491842 121 768ft 0kts
26-Oct-17 19:13 34.206519 -118.491842 121 768ft 0kts
26-Oct-17 19:14 34.206519 -118.491842 121 768ft 0kts
26-Oct-17 19:15 34.206519 -118.491842 121 768ft 0kts
26-Oct-17 19:16 34.206519 -118.491842 121 768ft 0kts
26-Oct-17 19:17 34.206519 -118.491842 121 768ft 0kts
26-Oct-17 19:18 34.206519 -118.491842 121 768ft 0kts
26-Oct-17 19:19 34.206519 -118.491842 121 768ft 0kts
26-Oct-17 19:20 34.206519 -118.491842 121 768ft 0kts
26-Oct-17 19:21 34.206519 -118.491842 121 768ft 0kts
26-Oct-17 19:22 34.206519 -118.491842 121 768ft 0kts
26-Oct-17 19:23 34.206488 -118.491751 107 768ft 0kts
26-Oct-17 19:24 34.206488 -118.491751 107 768ft 0kts
26-Oct-17 19:25 34.206488 -118.491751 107 768ft 0kts
26-Oct-17 19:26 34.206488 -118.491751 107 768ft 0kts
26-Oct-17 19:27 34.206488 -118.491751 107 768ft 0kts
26-Oct-17 19:28 34.206488 -118.491751 107 768ft 0kts
26-Oct-17 19:29 34.206488 -118.491751 107 768ft 0kts
26-Oct-17 19:30 34.206688 -118.491325 33 769ft 10kts
26-Oct-17 19:31 34.211188 -118.491651 356 777ft 19kts
26-Oct-17 19:32 34.216208 -118.492210 355 791ft 18kts
26-Oct-17 19:33 34.218736 -118.492433 184 795ft 0kts
26-Oct-17 19:34 34.218703 -118.492434 175 795ft 4kts
26-Oct-17 19:35 34.218661 -118.492353 83 795ft 0kts
26-Oct-17 19:36 34.218661 -118.492353 83 795ft 0kts
26-Oct-17 19:37 34.218661 -118.492353 83 795ft 0kts
26-Oct-17 19:38 34.218378 -118.491194 163 794ft 21kts
26-Oct-17 19:39 34.192275 -118.485642 142 1569ft 131kts
26-Oct-17 19:40 34.173049 -118.449477 121 2945ft 130kts
26-Oct-17 19:41 34.155991 -118.415578 122 3974ft 136kts
26-Oct-17 19:42 34.134464 -118.370001 119 4019ft 176kts
26-Oct-17 19:43 34.113301 -118.317794 111 4350ft 169kts
26-Oct-17 19:44 34.103486 -118.266691 77 5271ft 150kts
26-Oct-17 19:45 34.115491 -118.221559 72 6353ft 134kts
26-Oct-17 19:46 34.122220 -118.180162 88 7527ft 124kts
26-Oct-17 19:48 34.107650 -118.098997 105 9219ft 140kts
26-Oct-17 19:49 34.093802 -118.045678 104 9015ft 176kts
26-Oct-17 19:50 34.078966 -117.988987 109 9021ft 178kts
26-Oct-17 19:51 34.062634 -117.932323 114 9016ft 180kts
26-Oct-17 19:52 34.042218 -117.877792 109 9020ft 180kts
26-Oct-17 19:53 34.025839 -117.820965 108 9020ft 180kts
26-Oct-17 19:54 34.007091 -117.764902 116 9019ft 180kts
26-Oct-17 19:55 33.984396 -117.710980 115 9020ft 180kts
26-Oct-17 19:56 33.963134 -117.656366 114 9020ft 180kts
26-Oct-17 19:57 33.943919 -117.600589 111 9020ft 180kts
26-Oct-17 19:58 33.923731 -117.545454 109 9020ft 180kts
26-Oct-17 19:59 33.891687 -117.502512 148 9017ft 180kts
26-Oct-17 20:00 33.848908 -117.471698 144 9020ft 180kts
26-Oct-17 20:01 33.807977 -117.437289 144 9020ft 180kts
26-Oct-17 20:02 33.766850 -117.402691 144 9020ft 180kts
26-Oct-17 20:03 33.725983 -117.368116 144 9020ft 180kts
26-Oct-17 20:04 33.685239 -117.334141 145 9020ft 180kts
26-Oct-17 20:05 33.644158 -117.299858 145 9020ft 180kts
26-Oct-17 20:06 33.603068 -117.265537 145 9019ft 180kts
26-Oct-17 20:07 33.561918 -117.231205 145 9020ft 180kts
26-Oct-17 20:08 33.520794 -117.196934 145 9020ft 180kts
26-Oct-17 20:09 33.479789 -117.162801 145 9020ft 180kts
26-Oct-17 20:10 33.438584 -117.128574 146 9019ft 180kts
26-Oct-17 20:11 33.389193 -117.123524 179 9020ft 180kts
26-Oct-17 20:12 33.339073 -117.123432 179 9020ft 180kts
26-Oct-17 20:13 33.289548 -117.120019 169 9021ft 180kts
26-Oct-17 20:14 33.243395 -117.098071 151 9020ft 180kts
26-Oct-17 20:15 33.199122 -117.069798 151 9020ft 180kts
26-Oct-17 20:16 33.155041 -117.041644 151 9020ft 180kts
26-Oct-17 20:17 33.110779 -117.013372 151 9020ft 180kts
26-Oct-17 20:18 33.066701 -116.985215 151 9020ft 180kts
26-Oct-17 20:19 33.022468 -116.956957 151 9020ft 180kts
26-Oct-17 20:20 32.978275 -116.928722 151 9020ft 180kts
26-Oct-17 20:21 32.934133 -116.900516 151 9019ft 180kts
26-Oct-17 20:22 32.890811 -116.872852 151 8622ft 177kts
26-Oct-17 20:23 32.848778 -116.846032 151 7337ft 158kts
26-Oct-17 20:24 32.811900 -116.822493 151 5901ft 146kts
26-Oct-17 20:25 32.776433 -116.806644 189 4998ft 128kts
26-Oct-17 20:26 32.742829 -116.820959 211 4999ft 130kts
26-Oct-17 20:27 32.711677 -116.843876 211 4998ft 132kts
26-Oct-17 20:28 32.689988 -116.878605 251 4648ft 146kts
26-Oct-17 20:29 32.678872 -116.924979 254 4278ft 145kts
26-Oct-17 20:30 32.681354 -116.973493 283 3682ft 152kts
26-Oct-17 20:31 32.692371 -117.020590 285 2961ft 145kts
26-Oct-17 20:32 32.703222 -117.064733 285 2292ft 139kts
26-Oct-17 20:33 32.713753 -117.108179 286 1555ft 131kts
26-Oct-17 20:34 32.723290 -117.147128 285 797ft 121kts
26-Oct-17 20:35 32.730464 -117.176753 285 126ft 107kts
26-Oct-17 20:36 32.734832 -117.190199 96 14ft 10kts
26-Oct-17 20:37 32.733592 -117.185081 106 14ft 24kts
26-Oct-17 20:38 32.732145 -117.177505 37 17ft 21kts

Navigation Log

Ident Type
Flight plan parsing failed, navigation log unavailable